Malcolm Mc Kinnon Airport Brunswick US
ICAO: KSSI
IATA: SSI
Category: Medium
Scheduled Services: No

Elevation: 19 ft
TransAlt. 18000 ft.

Airport Communications:
ASOS:118.525
JACKSONVILLE CNTR:126.75
CTAF/UNICOM:123.05

KSSI Zoom In..

If Map Doesn't Load, Click Here

Runways:

(A) RW 04 length 5584 ft width 100 ft
---- / hdg 41

(B) RW 16 length 3313 ft width 75 ft
---- / hdg 159

(C) RW 22 length 5584 ft width 100 ft
---- / hdg 221

(D) RW 34 length 3313 ft width 75 ft
---- / hdg 339

Location; KSSI
Day. 23 / Time. 20.53 Zulu
* Altimeter: 30.00
* Temperature: 30° c. 86°f.
* Wind from: 080° Speed 11 kn.
Dewpoint: 22° c.
Visibility: 10 Statute Miles.
Clouds: Clear (automated report).

KSSI 232053Z AUTO 08011KT 10SM CLR 30/22 A3000 RMK AO2 SLP160 T03000222 56015


Wind From 080°
Speed 11 kn.

 
 
jpsmedia.com for Web Design worldairports.se 2018   terms of use